Rixey, Arkansas
Current Conditions -  °F | °C
As of 10:53 AM on Thursday 23 Oct 2014 (Local Time) from KLIT Reporting Station
Overcast Overcast  
Wind Chill: 54°   Ceiling: 15000
Heat Index: 54°   Visibility: 10mi
Dew Point: 45°   Wind: 3mph
Humidity: 72%   Direction: 90°E
Pressure: 30.23"   Gusts: NA
Location:  34.757°N, 92.1411°W
Report Text: KLIT 231553Z 09003KT 10SM BKN150 OVC250 12/07 A3023 RMK AO2 SLP238 T01220072
Loading
Personal Weather Stations






























Interactive Weather Map
Tropical Storm Tracking
New forecast layout! Learn more

10-Day Weather Forecast

Advertisements
Track Severe Weather on mobile